Terminal Aerodrome Forecast
Issued by NWS Pueblo, CO

Home | Current Version | Previous Version | Text Only | Print | Product List | Glossary On
Versions: 1 2 3 4 5 6 7 8 9 10 11 12 13 14 15 16 17 18 19 20 21
000
FTUS45 KPUB 191720
TAFCOS
TAF
KCOS 191720Z 1918/2018 01010KT P6SM SCT050 BKN080
     FM192000 05012KT P6SM VCSH BKN060
      TEMPO 1921/1924 VRB15G30KT 5SM -TSRA BKN040CB
     FM200000 36015KT P6SM VCSH BKN030 BKN060
     FM200300 02010KT P6SM SCT040 BKN080
     FM200600 36007KT P6SM SCT050 BKN080=

USA.gov is the U.S. government's official web portal to all federal, state and local government web resources and services.